Hauptseite
METAR-TAF:

METAR-TAF

Flughäfen :

NATO-Flugplatz Geilenkirchen

Geilenkirchen, Deutschland

Breite: 50-57-39N, Länge: 006-2-33E, Höhe: 90 m

METAR: fehlend

Zeit: 06:29 (05:29 UTC)

Prognose

Neuester Wetterbericht von vor 9 Stunden und 29 Minuten, um 20:00 UTC
Gültige Prognose vom 19 um 21 UTC bis 20 um 12 UTC
Wind 3 kt aus Nord
Sichtweite: 8000 m
Aufgelockert bewölkt in der Höhe von 4000 ft
Übergehend zu
vom 20 um 00 UTC bis 20 um 02 UTC
Wind 3 kt aus Nord
Sichtweite: 4000 m
Aufgelockert bewölkt in der Höhe von 700 ft
feuchter Dunst
Zeitweise
vom 20 um 02 UTC bis 20 um 10 UTC
Wind 4 kt aus Nord/Nordost
Sichtweite: 0300 m
in der Höhe von 100 ft
Gefrierender Nebel

TAF: ETNG 192000Z 1921/2012 01003KT 8000 NSW SCT040 BECMG 2000/2002 01003KT 4000 BR SCT007 TEMPO 2002/2010 02004KT 0300 FZFG VV001 BY ETGL

Wetterbeobachtungen und Prognosen von mehr als 4000 Flughäfen (METAR und TAF Bericht).

Die verfügbaren Stationen werden durch gelbe und rote Markierungen auf der Karte dargestellt.

Führen Sie die Maus auf sie, um den Namen der Station zu sehen.

Darauf klicken, um die Beobachtung von Wetterbeobachtungen und Prognosen zu sehen.

Um die Karte zu ändern : klicken Sie auf den grünen Tasten mit einem schwarzen Kreuz Zum Vergrößern, auf den grünen Button mit einem Gedankenstrich zu verkleinern, oder auf die grünen Pfeile für benachbarte Karten.


METAR-TAF: